Woodinville, WA

8:09 AM PDT on October 21, 2014 (GMT -0700)
Snohomish County | Change Station
CLOSE
Current Station
Airport
Location: Everett,
Elevation: 604 ft
Nearby Weather Stations

Elev 604 ft 47.91 °N, 122.28 °W | Updated 9 minutes ago

Mostly Cloudy
Mostly Cloudy
53 °F
Feels Like 53 °F
N
14
Wind Variable Wind from South
Gusts 24 mph

Today
High -- | Low -- °F
--% Chance of Precip.
Yesterday
High -- | Low -- °F
Precip. -- in
7:36 AM 6:08 PM
Waning Crescent, 5% visible
Pressure 29.85 in
Visibility 10.0 miles
Clouds Mostly Cloudy 1000 ft
Overcast 1600 ft
Dew Point 50 °F
Humidity 89%
Rainfall 0.05 in
Snow Depth 0 in
UV 0 out of 12
Pollen .40 out of 12
PM2.5 Good
Flu Activity Sporadic
SPECI KPAE 211500Z 18012G21KT 10SM -RA BKN010 OVC016 12/10 A2985 RMK AO2 CIG 007V013 P0000 T01170100

More Conditions Fewer Conditions

Pressure 29.85 in
Visibility 10.0 miles
Clouds Mostly Cloudy 1000 ft
Overcast 1600 ft
Dew Point 50 °F
Humidity 89%
Rainfall 0.05 in
Snow Depth 0 in
UV 0 out of 12
Pollen .40 out of 12
PM2.5 Good
Flu Activity Sporadic
SPECI KPAE 211500Z 18012G21KT 10SM -RA BKN010 OVC016 12/10 A2985 RMK AO2 CIG 007V013 P0000 T01170100

More Conditions Fewer Conditions

10-Day Weather Forecast

Almanac

Astronomy

Oct. 21, 2014 Rise Set
Actual Time 7:36 AM PDT 6:08 PM PDT
Civil Twilight 7:04 AM PDT 6:40 PM PDT
Nautical Twilight 6:28 AM PDT 7:16 PM PDT
Astronomical Twilight 5:53 AM PDT 7:51 PM PDT
Moon 5:16 AM PDT 5:12 PM PDT
Length of Visible Light 11h 35m
Length of Day
10h 32m
Tomorrow will be 3m 17s shorter.
Waning Crescent, 5% of the Moon is Illuminated
Today
Waning Crescent
Oct 23
New
Oct 30
First Quarter
Nov 6
Full
Nov 14
Last Quarter

Today's Extremes

State Highs State Lows

Community

WunderPhotos

Upload Photos

1,763,682 photos uploaded!

WunderBlogs® & News

By Dr. Jeff Masters
Director of Meteorology, Weather Underground
By Kari Strenfel
Meteorologist, Weather Underground
By Christopher C. Burt
Weather Historian, Weather Underground
October 21, 2014
October 21, 2014
October 21, 2014

Nearby

Air Quality

  Air Quality AQ Index Pollutant
Yesterday Good
PM2.5
Yesterday Good
OZONE
Current Good
PM2.5
Tuesday Good
PM2.5
Wednesday Good
PM2.5
Thursday Good
PM2.5
Friday Good
PM2.5
Saturday Good
PM2.5

Snow Depth

Station Depth Elevation
Alpine Meadows 0 in 3500 ft
Skookum Creek 0 in 3920 ft
Mount Gardner 0 in 3000 ft
Mount Crag 0 in 4050 ft
Meadows Pass 0 in 3500 ft

Earthquake Activity

City Distance Mag. Time & Date
No recent earthquake activity has been reported nearby.
Minimum magnitude displayed is 2.5.

Coastal Water Temperatures

Place Temperature
Port Townsend, WA 52.0 °F
Seattle, WA 55.0 °F
Friday Harbor, WA 51.1 °F
Tacoma, WA 54.0 °F

Nearby Weather Stations